sensor_id;sensor_type;location;lat;lon;timestamp;temperature;humidity
78694;SHT31;68029;51.978;5.646;2024-03-02T00:02:06;10.6;57.5
78694;SHT31;68029;51.978;5.646;2024-03-02T00:04:35;10.6;57.6
78694;SHT31;68029;51.978;5.646;2024-03-02T00:07:04;10.6;57.7
78694;SHT31;68029;51.978;5.646;2024-03-02T00:09:32;10.6;57.9
78694;SHT31;68029;51.978;5.646;2024-03-02T00:12:02;10.6;57.6
78694;SHT31;68029;51.978;5.646;2024-03-02T00:14:31;10.6;57.6
78694;SHT31;68029;51.978;5.646;2024-03-02T00:17:00;10.6;57.8
78694;SHT31;68029;51.978;5.646;2024-03-02T00:19:29;10.6;57.8
78694;SHT31;68029;51.978;5.646;2024-03-02T00:22:00;10.6;57.7
78694;SHT31;68029;51.978;5.646;2024-03-02T00:24:33;10.6;57.9
78694;SHT31;68029;51.978;5.646;2024-03-02T00:27:04;10.6;57.9
78694;SHT31;68029;51.978;5.646;2024-03-02T00:29:35;10.6;58.1
78694;SHT31;68029;51.978;5.646;2024-03-02T00:32:12;10.6;58.0
78694;SHT31;68029;51.978;5.646;2024-03-02T00:34:42;10.6;58.5
78694;SHT31;68029;51.978;5.646;2024-03-02T00:37:11;10.6;59.2
78694;SHT31;68029;51.978;5.646;2024-03-02T00:39:40;10.6;58.8
78694;SHT31;68029;51.978;5.646;2024-03-02T00:42:13;10.6;58.7
78694;SHT31;68029;51.978;5.646;2024-03-02T00:44:41;10.6;58.7
78694;SHT31;68029;51.978;5.646;2024-03-02T00:47:10;10.5;59.1
78694;SHT31;68029;51.978;5.646;2024-03-02T00:49:39;10.5;59.0
78694;SHT31;68029;51.978;5.646;2024-03-02T00:52:08;10.5;59.1
78694;SHT31;68029;51.978;5.646;2024-03-02T00:54:36;10.5;59.1
78694;SHT31;68029;51.978;5.646;2024-03-02T00:57:07;10.5;59.1
78694;SHT31;68029;51.978;5.646;2024-03-02T00:59:39;10.5;59.7
78694;SHT31;68029;51.978;5.646;2024-03-02T01:02:07;10.5;61.0
78694;SHT31;68029;51.978;5.646;2024-03-02T01:04:36;10.4;62.1
78694;SHT31;68029;51.978;5.646;2024-03-02T01:07:04;10.4;62.5
78694;SHT31;68029;51.978;5.646;2024-03-02T01:09:33;10.4;63.0
78694;SHT31;68029;51.978;5.646;2024-03-02T01:12:01;10.4;63.0
78694;SHT31;68029;51.978;5.646;2024-03-02T01:14:31;10.3;63.5
78694;SHT31;68029;51.978;5.646;2024-03-02T01:16:59;10.3;63.9
78694;SHT31;68029;51.978;5.646;2024-03-02T01:19:30;10.3;63.9
78694;SHT31;68029;51.978;5.646;2024-03-02T01:21:59;10.2;64.2
78694;SHT31;68029;51.978;5.646;2024-03-02T01:24:27;10.2;64.4
78694;SHT31;68029;51.978;5.646;2024-03-02T01:26:56;10.2;64.4
78694;SHT31;68029;51.978;5.646;2024-03-02T01:29:24;10.2;64.9
78694;SHT31;68029;51.978;5.646;2024-03-02T01:31:52;10.1;65.2
78694;SHT31;68029;51.978;5.646;2024-03-02T01:34:21;10.1;65.4
78694;SHT31;68029;51.978;5.646;2024-03-02T01:36:50;10.1;65.4
78694;SHT31;68029;51.978;5.646;2024-03-02T01:39:18;10.1;65.4
78694;SHT31;68029;51.978;5.646;2024-03-02T01:41:49;10.0;65.7
78694;SHT31;68029;51.978;5.646;2024-03-02T01:44:17;10.0;65.8
78694;SHT31;68029;51.978;5.646;2024-03-02T01:46:46;10.0;66.1
78694;SHT31;68029;51.978;5.646;2024-03-02T01:49:14;9.9;65.9
78694;SHT31;68029;51.978;5.646;2024-03-02T01:51:43;9.9;66.0
78694;SHT31;68029;51.978;5.646;2024-03-02T01:54:12;9.9;66.5
78694;SHT31;68029;51.978;5.646;2024-03-02T01:56:41;9.9;66.3
78694;SHT31;68029;51.978;5.646;2024-03-02T01:59:10;9.8;66.5
78694;SHT31;68029;51.978;5.646;2024-03-02T02:01:39;9.8;66.5
78694;SHT31;68029;51.978;5.646;2024-03-02T02:04:10;9.8;66.5
78694;SHT31;68029;51.978;5.646;2024-03-02T02:06:40;9.8;66.7
78694;SHT31;68029;51.978;5.646;2024-03-02T02:09:11;9.8;66.8
78694;SHT31;68029;51.978;5.646;2024-03-02T02:11:39;9.8;66.9
78694;SHT31;68029;51.978;5.646;2024-03-02T02:14:08;9.8;66.8
78694;SHT31;68029;51.978;5.646;2024-03-02T02:16:37;9.8;66.9
78694;SHT31;68029;51.978;5.646;2024-03-02T02:19:06;9.8;66.7
78694;SHT31;68029;51.978;5.646;2024-03-02T02:21:37;9.8;66.7
78694;SHT31;68029;51.978;5.646;2024-03-02T02:24:06;9.8;66.6
78694;SHT31;68029;51.978;5.646;2024-03-02T02:26:35;9.7;66.6
78694;SHT31;68029;51.978;5.646;2024-03-02T02:29:03;9.7;66.7
78694;SHT31;68029;51.978;5.646;2024-03-02T02:31:39;9.7;66.7
78694;SHT31;68029;51.978;5.646;2024-03-02T02:34:10;9.7;67.0
78694;SHT31;68029;51.978;5.646;2024-03-02T02:36:39;9.7;67.9
78694;SHT31;68029;51.978;5.646;2024-03-02T02:39:11;9.7;68.5
78694;SHT31;68029;51.978;5.646;2024-03-02T02:41:41;9.7;68.4
78694;SHT31;68029;51.978;5.646;2024-03-02T02:44:12;9.6;69.1
78694;SHT31;68029;51.978;5.646;2024-03-02T02:46:41;9.6;69.1
78694;SHT31;68029;51.978;5.646;2024-03-02T02:49:10;9.6;69.1
78694;SHT31;68029;51.978;5.646;2024-03-02T02:51:38;9.5;69.5
78694;SHT31;68029;51.978;5.646;2024-03-02T02:54:08;9.5;70.1
78694;SHT31;68029;51.978;5.646;2024-03-02T02:56:37;9.5;70.2
78694;SHT31;68029;51.978;5.646;2024-03-02T02:59:06;9.5;70.2
78694;SHT31;68029;51.978;5.646;2024-03-02T03:01:34;9.5;70.0
78694;SHT31;68029;51.978;5.646;2024-03-02T03:04:03;9.4;70.4
78694;SHT31;68029;51.978;5.646;2024-03-02T03:06:32;9.4;70.7
78694;SHT31;68029;51.978;5.646;2024-03-02T03:09:00;9.4;69.7
78694;SHT31;68029;51.978;5.646;2024-03-02T03:11:29;9.4;70.6
78694;SHT31;68029;51.978;5.646;2024-03-02T03:13:57;9.4;70.7
78694;SHT31;68029;51.978;5.646;2024-03-02T03:16:27;9.4;70.2
78694;SHT31;68029;51.978;5.646;2024-03-02T03:18:58;9.4;69.8
78694;SHT31;68029;51.978;5.646;2024-03-02T03:21:26;9.3;70.7
78694;SHT31;68029;51.978;5.646;2024-03-02T03:23:55;9.3;69.8
78694;SHT31;68029;51.978;5.646;2024-03-02T03:26:23;9.3;70.1
78694;SHT31;68029;51.978;5.646;2024-03-02T03:28:52;9.3;70.1
78694;SHT31;68029;51.978;5.646;2024-03-02T03:31:20;9.2;69.8
78694;SHT31;68029;51.978;5.646;2024-03-02T03:33:48;9.2;70.0
78694;SHT31;68029;51.978;5.646;2024-03-02T03:36:17;9.2;70.2
78694;SHT31;68029;51.978;5.646;2024-03-02T03:38:46;9.2;70.0
78694;SHT31;68029;51.978;5.646;2024-03-02T03:41:14;9.1;70.3
78694;SHT31;68029;51.978;5.646;2024-03-02T03:43:43;9.1;70.0
78694;SHT31;68029;51.978;5.646;2024-03-02T03:46:11;9.1;69.8
78694;SHT31;68029;51.978;5.646;2024-03-02T03:48:40;9.1;69.9
78694;SHT31;68029;51.978;5.646;2024-03-02T03:51:08;9.1;69.5
78694;SHT31;68029;51.978;5.646;2024-03-02T03:53:37;9.1;69.6
78694;SHT31;68029;51.978;5.646;2024-03-02T03:56:06;9.1;69.6
78694;SHT31;68029;51.978;5.646;2024-03-02T03:58:35;9.0;69.5
78694;SHT31;68029;51.978;5.646;2024-03-02T04:01:03;9.0;69.6
78694;SHT31;68029;51.978;5.646;2024-03-02T04:03:31;9.0;70.0
78694;SHT31;68029;51.978;5.646;2024-03-02T04:06:00;9.0;69.9
78694;SHT31;68029;51.978;5.646;2024-03-02T04:08:30;9.0;70.0
78694;SHT31;68029;51.978;5.646;2024-03-02T04:11:01;9.0;69.8
78694;SHT31;68029;51.978;5.646;2024-03-02T04:13:31;9.0;69.7
78694;SHT31;68029;51.978;5.646;2024-03-02T04:15:59;9.0;69.6
78694;SHT31;68029;51.978;5.646;2024-03-02T04:18:30;9.0;69.6
78694;SHT31;68029;51.978;5.646;2024-03-02T04:20:59;9.0;68.6
78694;SHT31;68029;51.978;5.646;2024-03-02T04:23:30;9.0;69.0
78694;SHT31;68029;51.978;5.646;2024-03-02T04:25:58;9.0;69.1
78694;SHT31;68029;51.978;5.646;2024-03-02T04:28:27;9.0;68.7
78694;SHT31;68029;51.978;5.646;2024-03-02T04:30:55;9.0;68.7
78694;SHT31;68029;51.978;5.646;2024-03-02T04:33:24;9.0;68.3
78694;SHT31;68029;51.978;5.646;2024-03-02T04:35:52;9.0;68.2
78694;SHT31;68029;51.978;5.646;2024-03-02T04:38:20;9.0;67.9
78694;SHT31;68029;51.978;5.646;2024-03-02T04:40:49;9.0;68.1
78694;SHT31;68029;51.978;5.646;2024-03-02T04:43:18;9.0;67.7
78694;SHT31;68029;51.978;5.646;2024-03-02T04:45:46;9.0;67.8
78694;SHT31;68029;51.978;5.646;2024-03-02T04:48:15;9.0;67.8
78694;SHT31;68029;51.978;5.646;2024-03-02T04:50:43;9.0;67.7
78694;SHT31;68029;51.978;5.646;2024-03-02T04:53:12;9.0;67.7
78694;SHT31;68029;51.978;5.646;2024-03-02T04:55:40;9.0;67.5
78694;SHT31;68029;51.978;5.646;2024-03-02T04:59:40;9.0;67.4
78694;SHT31;68029;51.978;5.646;2024-03-02T05:02:08;9.0;67.5
78694;SHT31;68029;51.978;5.646;2024-03-02T05:04:37;9.0;67.4
78694;SHT31;68029;51.978;5.646;2024-03-02T05:07:05;9.1;67.8
78694;SHT31;68029;51.978;5.646;2024-03-02T05:09:34;9.1;67.7
78694;SHT31;68029;51.978;5.646;2024-03-02T05:12:03;9.1;67.6
78694;SHT31;68029;51.978;5.646;2024-03-02T05:14:49;9.1;67.4
78694;SHT31;68029;51.978;5.646;2024-03-02T05:17:17;9.1;67.6
78694;SHT31;68029;51.978;5.646;2024-03-02T05:19:46;9.1;67.7
78694;SHT31;68029;51.978;5.646;2024-03-02T05:22:14;9.1;67.8
78694;SHT31;68029;51.978;5.646;2024-03-02T05:24:43;9.1;67.6
78694;SHT31;68029;51.978;5.646;2024-03-02T05:27:11;9.1;67.7
78694;SHT31;68029;51.978;5.646;2024-03-02T05:29:41;9.0;67.8
78694;SHT31;68029;51.978;5.646;2024-03-02T05:32:09;9.0;67.8
78694;SHT31;68029;51.978;5.646;2024-03-02T05:34:38;9.0;67.8
78694;SHT31;68029;51.978;5.646;2024-03-02T05:37:08;9.0;68.0
78694;SHT31;68029;51.978;5.646;2024-03-02T05:39:37;9.0;68.0
78694;SHT31;68029;51.978;5.646;2024-03-02T05:42:06;9.0;68.1
78694;SHT31;68029;51.978;5.646;2024-03-02T05:44:35;9.0;68.2
78694;SHT31;68029;51.978;5.646;2024-03-02T05:47:04;9.0;68.3
78694;SHT31;68029;51.978;5.646;2024-03-02T05:49:35;9.0;68.2
78694;SHT31;68029;51.978;5.646;2024-03-02T05:52:04;9.0;67.6
78694;SHT31;68029;51.978;5.646;2024-03-02T05:54:33;9.0;67.7
78694;SHT31;68029;51.978;5.646;2024-03-02T05:57:02;9.0;67.5
78694;SHT31;68029;51.978;5.646;2024-03-02T05:59:35;9.0;67.6
78694;SHT31;68029;51.978;5.646;2024-03-02T06:02:04;9.0;67.3
78694;SHT31;68029;51.978;5.646;2024-03-02T06:04:32;9.0;66.9
78694;SHT31;68029;51.978;5.646;2024-03-02T06:07:01;9.0;66.4
78694;SHT31;68029;51.978;5.646;2024-03-02T06:09:29;9.0;66.4
78694;SHT31;68029;51.978;5.646;2024-03-02T06:11:58;9.0;66.1
78694;SHT31;68029;51.978;5.646;2024-03-02T06:14:26;9.0;66.2
78694;SHT31;68029;51.978;5.646;2024-03-02T06:16:55;9.0;66.1
78694;SHT31;68029;51.978;5.646;2024-03-02T06:19:26;8.9;66.1
78694;SHT31;68029;51.978;5.646;2024-03-02T06:21:54;8.9;66.2
78694;SHT31;68029;51.978;5.646;2024-03-02T06:24:23;8.9;66.3
78694;SHT31;68029;51.978;5.646;2024-03-02T06:26:52;8.9;66.5
78694;SHT31;68029;51.978;5.646;2024-03-02T06:29:21;8.9;66.6
78694;SHT31;68029;51.978;5.646;2024-03-02T06:31:50;8.9;66.6
78694;SHT31;68029;51.978;5.646;2024-03-02T06:34:18;8.9;66.2
78694;SHT31;68029;51.978;5.646;2024-03-02T06:36:47;8.9;66.0
78694;SHT31;68029;51.978;5.646;2024-03-02T06:39:15;8.8;65.8
78694;SHT31;68029;51.978;5.646;2024-03-02T06:41:44;8.8;65.7
78694;SHT31;68029;51.978;5.646;2024-03-02T06:44:13;8.8;65.7
78694;SHT31;68029;51.978;5.646;2024-03-02T06:46:42;8.8;66.0
78694;SHT31;68029;51.978;5.646;2024-03-02T06:49:10;8.8;65.8
78694;SHT31;68029;51.978;5.646;2024-03-02T06:51:39;8.8;65.8
78694;SHT31;68029;51.978;5.646;2024-03-02T06:54:08;8.8;65.7
78694;SHT31;68029;51.978;5.646;2024-03-02T06:56:39;8.8;65.6
78694;SHT31;68029;51.978;5.646;2024-03-02T06:59:07;8.8;65.5
78694;SHT31;68029;51.978;5.646;2024-03-02T07:01:36;8.8;65.7
78694;SHT31;68029;51.978;5.646;2024-03-02T07:04:04;8.8;65.6
78694;SHT31;68029;51.978;5.646;2024-03-02T07:06:33;8.8;65.5
78694;SHT31;68029;51.978;5.646;2024-03-02T07:09:01;8.8;65.8
78694;SHT31;68029;51.978;5.646;2024-03-02T07:11:30;8.8;65.6
78694;SHT31;68029;51.978;5.646;2024-03-02T07:13:58;8.8;65.7
78694;SHT31;68029;51.978;5.646;2024-03-02T07:16:30;8.9;65.8
78694;SHT31;68029;51.978;5.646;2024-03-02T07:18:59;8.9;65.8
78694;SHT31;68029;51.978;5.646;2024-03-02T07:21:29;9.0;65.7
78694;SHT31;68029;51.978;5.646;2024-03-02T07:23:59;9.1;65.7
78694;SHT31;68029;51.978;5.646;2024-03-02T07:26:29;9.2;64.9
78694;SHT31;68029;51.978;5.646;2024-03-02T07:29:00;9.4;65.3
78694;SHT31;68029;51.978;5.646;2024-03-02T07:31:29;9.5;64.6
78694;SHT31;68029;51.978;5.646;2024-03-02T07:33:57;9.7;64.3
78694;SHT31;68029;51.978;5.646;2024-03-02T07:36:26;9.8;63.3
78694;SHT31;68029;51.978;5.646;2024-03-02T07:38:57;10.0;62.2
78694;SHT31;68029;51.978;5.646;2024-03-02T07:41:25;10.1;62.0
78694;SHT31;68029;51.978;5.646;2024-03-02T07:43:54;10.2;61.9
78694;SHT31;68029;51.978;5.646;2024-03-02T07:46:23;10.3;61.6
78694;SHT31;68029;51.978;5.646;2024-03-02T07:48:52;10.4;61.4
78694;SHT31;68029;51.978;5.646;2024-03-02T07:51:20;10.5;61.3
78694;SHT31;68029;51.978;5.646;2024-03-02T07:53:49;10.6;60.6
78694;SHT31;68029;51.978;5.646;2024-03-02T07:56:17;10.8;60.3
78694;SHT31;68029;51.978;5.646;2024-03-02T07:58:49;10.9;59.8
78694;SHT31;68029;51.978;5.646;2024-03-02T08:01:18;11.0;60.0
78694;SHT31;68029;51.978;5.646;2024-03-02T08:03:47;11.1;58.8
78694;SHT31;68029;51.978;5.646;2024-03-02T08:06:17;11.3;58.4
78694;SHT31;68029;51.978;5.646;2024-03-02T08:08:48;11.3;58.7
78694;SHT31;68029;51.978;5.646;2024-03-02T08:11:16;11.4;58.4
78694;SHT31;68029;51.978;5.646;2024-03-02T08:13:44;11.5;57.8
78694;SHT31;68029;51.978;5.646;2024-03-02T08:16:13;11.5;57.7
78694;SHT31;68029;51.978;5.646;2024-03-02T08:18:42;11.5;57.0
78694;SHT31;68029;51.978;5.646;2024-03-02T08:21:12;11.6;56.8
78694;SHT31;68029;51.978;5.646;2024-03-02T08:23:41;11.5;57.0
78694;SHT31;68029;51.978;5.646;2024-03-02T08:26:11;11.5;57.0
78694;SHT31;68029;51.978;5.646;2024-03-02T08:28:40;11.5;56.2
78694;SHT31;68029;51.978;5.646;2024-03-02T08:31:09;11.5;56.9
78694;SHT31;68029;51.978;5.646;2024-03-02T08:33:38;11.5;56.5
78694;SHT31;68029;51.978;5.646;2024-03-02T08:36:08;11.5;56.2
78694;SHT31;68029;51.978;5.646;2024-03-02T08:38:38;11.4;56.2
78694;SHT31;68029;51.978;5.646;2024-03-02T08:41:07;11.4;56.0
78694;SHT31;68029;51.978;5.646;2024-03-02T08:43:35;11.3;56.2
78694;SHT31;68029;51.978;5.646;2024-03-02T08:46:06;11.3;57.1
78694;SHT31;68029;51.978;5.646;2024-03-02T08:48:35;11.3;56.2
78694;SHT31;68029;51.978;5.646;2024-03-02T08:51:03;11.3;56.3
78694;SHT31;68029;51.978;5.646;2024-03-02T08:53:34;11.4;56.6
78694;SHT31;68029;51.978;5.646;2024-03-02T08:56:03;11.4;56.3
78694;SHT31;68029;51.978;5.646;2024-03-02T08:58:33;11.5;55.8
78694;SHT31;68029;51.978;5.646;2024-03-02T09:01:02;11.6;55.1
78694;SHT31;68029;51.978;5.646;2024-03-02T09:03:30;11.7;54.8
78694;SHT31;68029;51.978;5.646;2024-03-02T09:06:00;11.8;54.1
78694;SHT31;68029;51.978;5.646;2024-03-02T09:08:29;11.9;54.6
78694;SHT31;68029;51.978;5.646;2024-03-02T09:10:57;12.0;54.9
78694;SHT31;68029;51.978;5.646;2024-03-02T09:13:28;12.1;53.2
78694;SHT31;68029;51.978;5.646;2024-03-02T09:15:57;12.3;53.3
78694;SHT31;68029;51.978;5.646;2024-03-02T09:18:25;12.4;52.7
78694;SHT31;68029;51.978;5.646;2024-03-02T09:20:53;12.5;52.8
78694;SHT31;68029;51.978;5.646;2024-03-02T09:23:24;12.7;51.9
78694;SHT31;68029;51.978;5.646;2024-03-02T09:25:53;12.9;51.3
78694;SHT31;68029;51.978;5.646;2024-03-02T09:28:21;13.0;50.7
78694;SHT31;68029;51.978;5.646;2024-03-02T09:30:50;13.1;50.5
78694;SHT31;68029;51.978;5.646;2024-03-02T09:33:18;13.2;50.3
78694;SHT31;68029;51.978;5.646;2024-03-02T09:35:47;13.3;51.2
78694;SHT31;68029;51.978;5.646;2024-03-02T09:38:17;13.4;50.1
78694;SHT31;68029;51.978;5.646;2024-03-02T09:40:45;13.6;49.0
78694;SHT31;68029;51.978;5.646;2024-03-02T09:43:14;13.7;49.7
78694;SHT31;68029;51.978;5.646;2024-03-02T09:45:45;13.9;48.7
78694;SHT31;68029;51.978;5.646;2024-03-02T09:48:14;14.0;47.5
78694;SHT31;68029;51.978;5.646;2024-03-02T09:50:48;14.1;48.2
78694;SHT31;68029;51.978;5.646;2024-03-02T09:53:18;14.2;47.6
78694;SHT31;68029;51.978;5.646;2024-03-02T09:55:48;14.3;46.7
78694;SHT31;68029;51.978;5.646;2024-03-02T09:58:16;14.3;47.1
78694;SHT31;68029;51.978;5.646;2024-03-02T10:00:45;14.4;47.5
78694;SHT31;68029;51.978;5.646;2024-03-02T10:03:13;14.4;46.8
78694;SHT31;68029;51.978;5.646;2024-03-02T10:05:42;14.5;47.5
78694;SHT31;68029;51.978;5.646;2024-03-02T10:08:11;14.6;47.6
78694;SHT31;68029;51.978;5.646;2024-03-02T10:10:41;14.7;47.9
78694;SHT31;68029;51.978;5.646;2024-03-02T10:13:12;14.8;46.7
78694;SHT31;68029;51.978;5.646;2024-03-02T10:15:41;15.0;46.4
78694;SHT31;68029;51.978;5.646;2024-03-02T10:18:11;15.1;46.3
78694;SHT31;68029;51.978;5.646;2024-03-02T10:20:44;15.3;44.8
78694;SHT31;68029;51.978;5.646;2024-03-02T10:23:16;15.4;44.3
78694;SHT31;68029;51.978;5.646;2024-03-02T10:25:45;15.5;43.9
78694;SHT31;68029;51.978;5.646;2024-03-02T10:28:15;15.6;43.0
78694;SHT31;68029;51.978;5.646;2024-03-02T10:30:48;15.6;43.0
78694;SHT31;68029;51.978;5.646;2024-03-02T10:33:19;15.7;42.7
78694;SHT31;68029;51.978;5.646;2024-03-02T10:35:49;15.7;42.9
78694;SHT31;68029;51.978;5.646;2024-03-02T10:38:18;15.8;42.4
78694;SHT31;68029;51.978;5.646;2024-03-02T10:40:48;15.9;42.0
78694;SHT31;68029;51.978;5.646;2024-03-02T10:43:19;16.0;41.5
78694;SHT31;68029;51.978;5.646;2024-03-02T10:45:49;16.0;41.7
78694;SHT31;68029;51.978;5.646;2024-03-02T10:48:19;16.1;41.3
78694;SHT31;68029;51.978;5.646;2024-03-02T10:50:48;16.1;41.2
78694;SHT31;68029;51.978;5.646;2024-03-02T10:53:17;16.1;40.7
78694;SHT31;68029;51.978;5.646;2024-03-02T10:55:52;16.2;40.3
78694;SHT31;68029;51.978;5.646;2024-03-02T10:58:33;16.2;40.7
78694;SHT31;68029;51.978;5.646;2024-03-02T11:01:03;16.2;40.5
78694;SHT31;68029;51.978;5.646;2024-03-02T11:03:36;16.2;40.8
78694;SHT31;68029;51.978;5.646;2024-03-02T11:06:08;16.3;40.5
78694;SHT31;68029;51.978;5.646;2024-03-02T11:08:38;16.3;41.1
78694;SHT31;68029;51.978;5.646;2024-03-02T11:11:16;16.3;41.2
78694;SHT31;68029;51.978;5.646;2024-03-02T11:13:50;16.4;41.0
78694;SHT31;68029;51.978;5.646;2024-03-02T11:16:27;16.5;40.5
78694;SHT31;68029;51.978;5.646;2024-03-02T11:19:03;16.5;40.8
78694;SHT31;68029;51.978;5.646;2024-03-02T11:21:34;16.5;41.4
78694;SHT31;68029;51.978;5.646;2024-03-02T11:24:32;16.5;41.9
78694;SHT31;68029;51.978;5.646;2024-03-02T11:27:05;16.6;40.7
78694;SHT31;68029;51.978;5.646;2024-03-02T11:29:47;16.8;40.9
78694;SHT31;68029;51.978;5.646;2024-03-02T11:32:21;17.0;39.6
78694;SHT31;68029;51.978;5.646;2024-03-02T11:34:51;17.1;38.7
78694;SHT31;68029;51.978;5.646;2024-03-02T11:37:20;17.1;39.3
78694;SHT31;68029;51.978;5.646;2024-03-02T11:39:50;17.2;38.8
78694;SHT31;68029;51.978;5.646;2024-03-02T11:42:20;17.3;38.8
78694;SHT31;68029;51.978;5.646;2024-03-02T11:44:49;17.3;39.0
78694;SHT31;68029;51.978;5.646;2024-03-02T11:47:17;17.4;39.7
78694;SHT31;68029;51.978;5.646;2024-03-02T11:49:50;17.5;37.6
78694;SHT31;68029;51.978;5.646;2024-03-02T11:52:19;17.6;37.2
78694;SHT31;68029;51.978;5.646;2024-03-02T11:54:48;17.7;37.6
78694;SHT31;68029;51.978;5.646;2024-03-02T11:57:19;17.7;35.8
78694;SHT31;68029;51.978;5.646;2024-03-02T11:59:49;17.8;35.5
78694;SHT31;68029;51.978;5.646;2024-03-02T12:02:20;17.8;35.5
78694;SHT31;68029;51.978;5.646;2024-03-02T12:04:50;17.8;35.5
78694;SHT31;68029;51.978;5.646;2024-03-02T12:07:23;17.9;36.0
78694;SHT31;68029;51.978;5.646;2024-03-02T12:10:01;17.9;36.8
78694;SHT31;68029;51.978;5.646;2024-03-02T12:12:33;18.0;36.1
78694;SHT31;68029;51.978;5.646;2024-03-02T12:15:02;18.1;35.7
78694;SHT31;68029;51.978;5.646;2024-03-02T12:17:31;18.2;35.6
78694;SHT31;68029;51.978;5.646;2024-03-02T12:22:26;18.6;36.0
78694;SHT31;68029;51.978;5.646;2024-03-02T12:24:55;18.7;34.5
78694;SHT31;68029;51.978;5.646;2024-03-02T12:27:24;18.7;34.7
78694;SHT31;68029;51.978;5.646;2024-03-02T12:29:53;18.6;34.7
78694;SHT31;68029;51.978;5.646;2024-03-02T12:32:21;18.5;35.9
78694;SHT31;68029;51.978;5.646;2024-03-02T12:34:52;18.5;35.5
78694;SHT31;68029;51.978;5.646;2024-03-02T12:37:21;18.5;36.0
78694;SHT31;68029;51.978;5.646;2024-03-02T12:39:49;18.5;35.8
78694;SHT31;68029;51.978;5.646;2024-03-02T12:42:18;18.5;36.1
78694;SHT31;68029;51.978;5.646;2024-03-02T12:44:46;18.5;35.6
78694;SHT31;68029;51.978;5.646;2024-03-02T12:47:17;18.5;35.5
78694;SHT31;68029;51.978;5.646;2024-03-02T12:49:47;18.4;35.6
78694;SHT31;68029;51.978;5.646;2024-03-02T12:52:17;18.3;35.9
78694;SHT31;68029;51.978;5.646;2024-03-02T12:54:46;18.2;36.0
78694;SHT31;68029;51.978;5.646;2024-03-02T12:57:18;18.1;36.8
78694;SHT31;68029;51.978;5.646;2024-03-02T12:59:47;18.0;37.1
78694;SHT31;68029;51.978;5.646;2024-03-02T13:02:19;17.9;37.3
78694;SHT31;68029;51.978;5.646;2024-03-02T13:04:54;17.9;37.6
78694;SHT31;68029;51.978;5.646;2024-03-02T13:07:24;18.0;37.5
78694;SHT31;68029;51.978;5.646;2024-03-02T13:09:55;18.1;36.9
78694;SHT31;68029;51.978;5.646;2024-03-02T13:12:25;18.3;36.6
78694;SHT31;68029;51.978;5.646;2024-03-02T13:14:54;18.5;36.2
78694;SHT31;68029;51.978;5.646;2024-03-02T13:17:22;18.6;37.4
78694;SHT31;68029;51.978;5.646;2024-03-02T13:19:56;18.9;35.8
78694;SHT31;68029;51.978;5.646;2024-03-02T13:22:25;19.2;35.1
78694;SHT31;68029;51.978;5.646;2024-03-02T13:24:54;19.5;34.6
78694;SHT31;68029;51.978;5.646;2024-03-02T13:27:23;19.5;34.0
78694;SHT31;68029;51.978;5.646;2024-03-02T13:29:51;19.6;34.1
78694;SHT31;68029;51.978;5.646;2024-03-02T13:32:20;19.6;34.5
78694;SHT31;68029;51.978;5.646;2024-03-02T13:34:50;19.6;34.4
78694;SHT31;68029;51.978;5.646;2024-03-02T13:37:20;19.7;33.4
78694;SHT31;68029;51.978;5.646;2024-03-02T13:39:49;19.9;33.5
78694;SHT31;68029;51.978;5.646;2024-03-02T13:42:18;20.0;33.3
78694;SHT31;68029;51.978;5.646;2024-03-02T13:44:47;20.1;33.5
78694;SHT31;68029;51.978;5.646;2024-03-02T13:47:17;20.2;33.6
78694;SHT31;68029;51.978;5.646;2024-03-02T13:49:47;20.3;32.9
78694;SHT31;68029;51.978;5.646;2024-03-02T13:52:16;20.4;32.4
78694;SHT31;68029;51.978;5.646;2024-03-02T13:54:46;20.5;32.7
78694;SHT31;68029;51.978;5.646;2024-03-02T13:57:15;20.6;31.9
78694;SHT31;68029;51.978;5.646;2024-03-02T13:59:46;20.7;31.8
78694;SHT31;68029;51.978;5.646;2024-03-02T14:02:15;20.8;31.0
78694;SHT31;68029;51.978;5.646;2024-03-02T14:04:43;20.9;31.0
78694;SHT31;68029;51.978;5.646;2024-03-02T14:07:14;21.0;31.3
78694;SHT31;68029;51.978;5.646;2024-03-02T14:09:45;21.1;31.2
78694;SHT31;68029;51.978;5.646;2024-03-02T14:12:14;21.2;31.3
78694;SHT31;68029;51.978;5.646;2024-03-02T14:14:43;21.4;31.2
78694;SHT31;68029;51.978;5.646;2024-03-02T14:17:11;21.5;31.4
78694;SHT31;68029;51.978;5.646;2024-03-02T14:19:42;21.7;30.8
78694;SHT31;68029;51.978;5.646;2024-03-02T14:22:10;21.8;30.1
78694;SHT31;68029;51.978;5.646;2024-03-02T14:24:43;21.8;30.2
78694;SHT31;68029;51.978;5.646;2024-03-02T14:27:14;21.7;30.6
78694;SHT31;68029;51.978;5.646;2024-03-02T14:29:44;21.7;30.7
78694;SHT31;68029;51.978;5.646;2024-03-02T14:32:12;21.6;30.3
78694;SHT31;68029;51.978;5.646;2024-03-02T14:34:41;21.6;30.1
78694;SHT31;68029;51.978;5.646;2024-03-02T14:37:12;21.6;30.1
78694;SHT31;68029;51.978;5.646;2024-03-02T14:39:41;21.6;30.6
78694;SHT31;68029;51.978;5.646;2024-03-02T14:42:10;21.6;30.9
78694;SHT31;68029;51.978;5.646;2024-03-02T14:44:39;21.6;31.0
78694;SHT31;68029;51.978;5.646;2024-03-02T14:47:09;21.6;31.2
78694;SHT31;68029;51.978;5.646;2024-03-02T14:49:38;21.5;31.4
78694;SHT31;68029;51.978;5.646;2024-03-02T14:52:08;21.5;31.3
78694;SHT31;68029;51.978;5.646;2024-03-02T14:54:37;21.4;31.7
78694;SHT31;68029;51.978;5.646;2024-03-02T14:57:06;21.4;32.0
78694;SHT31;68029;51.978;5.646;2024-03-02T14:59:35;21.4;32.3
78694;SHT31;68029;51.978;5.646;2024-03-02T15:02:06;21.5;32.1
78694;SHT31;68029;51.978;5.646;2024-03-02T15:04:36;21.6;31.5
78694;SHT31;68029;51.978;5.646;2024-03-02T15:07:04;21.6;31.2
78694;SHT31;68029;51.978;5.646;2024-03-02T15:09:33;21.6;31.2
78694;SHT31;68029;51.978;5.646;2024-03-02T15:12:02;21.6;31.6
